sensor_id;sensor_type;location;lat;lon;timestamp;P1;durP1;ratioP1;P2;durP2;ratioP2
73015;SDS011;61893;50.074;14.440;2023-07-13T12:14:25;1.92;;;1.10;;
73015;SDS011;61893;50.074;14.440;2023-07-13T12:16:53;15.18;;;1.85;;
73015;SDS011;61893;50.074;14.440;2023-07-13T12:19:23;6.97;;;2.28;;
73015;SDS011;61893;50.074;14.440;2023-07-13T12:21:53;3.35;;;1.75;;
73015;SDS011;61893;50.074;14.440;2023-07-13T12:24:21;3.63;;;1.45;;
73015;SDS011;61893;50.074;14.440;2023-07-13T12:29:33;2.53;;;1.20;;
73015;SDS011;61893;50.074;14.440;2023-07-13T12:32:08;3.42;;;1.38;;
73015;SDS011;61893;50.074;14.440;2023-07-13T12:34:49;3.15;;;1.27;;
73015;SDS011;61893;50.074;14.440;2023-07-13T12:37:22;3.53;;;1.25;;
73015;SDS011;61893;50.074;14.440;2023-07-13T12:46:31;4.38;;;1.17;;
73015;SDS011;61893;50.074;14.440;2023-07-13T12:49:05;2.72;;;1.15;;
73015;SDS011;61893;50.074;14.440;2023-07-13T13:01:02;1.88;;;1.05;;
73015;SDS011;61893;50.074;14.440;2023-07-13T13:03:33;2.10;;;1.20;;
73015;SDS011;61893;50.074;14.440;2023-07-13T13:08:56;3.25;;;1.20;;
73015;SDS011;61893;50.074;14.440;2023-07-13T13:11:31;3.10;;;1.30;;
73015;SDS011;61893;50.074;14.440;2023-07-13T13:14:25;2.55;;;1.20;;
73015;SDS011;61893;50.074;14.440;2023-07-13T13:26:08;1.92;;;1.10;;
73015;SDS011;61893;50.074;14.440;2023-07-13T13:29:17;2.67;;;1.02;;
73015;SDS011;61893;50.074;14.440;2023-07-13T13:31:44;5.97;;;1.60;;
73015;SDS011;61893;50.074;14.440;2023-07-13T13:34:12;7.72;;;1.88;;
73015;SDS011;61893;50.074;14.440;2023-07-13T13:36:45;3.58;;;1.48;;
73015;SDS011;61893;50.074;14.440;2023-07-13T13:41:47;4.50;;;1.30;;
73015;SDS011;61893;50.074;14.440;2023-07-13T13:44:15;3.67;;;1.27;;
73015;SDS011;61893;50.074;14.440;2023-07-13T13:46:43;4.15;;;1.50;;
73015;SDS011;61893;50.074;14.440;2023-07-13T13:49:15;2.00;;;1.52;;
73015;SDS011;61893;50.074;14.440;2023-07-13T13:52:08;3.03;;;1.30;;
73015;SDS011;61893;50.074;14.440;2023-07-13T13:54:42;3.08;;;1.35;;
73015;SDS011;61893;50.074;14.440;2023-07-13T13:58:04;1.80;;;1.33;;
73015;SDS011;61893;50.074;14.440;2023-07-13T14:01:02;5.53;;;1.13;;
73015;SDS011;61893;50.074;14.440;2023-07-13T14:03:28;1.60;;;1.20;;
73015;SDS011;61893;50.074;14.440;2023-07-13T14:05:54;3.30;;;1.30;;
73015;SDS011;61893;50.074;14.440;2023-07-13T14:08:22;3.17;;;1.42;;
73015;SDS011;61893;50.074;14.440;2023-07-13T14:13:28;3.85;;;1.48;;
73015;SDS011;61893;50.074;14.440;2023-07-13T14:16:01;2.28;;;1.30;;
73015;SDS011;61893;50.074;14.440;2023-07-13T14:18:28;2.92;;;1.20;;
73015;SDS011;61893;50.074;14.440;2023-07-13T14:20:55;1.85;;;1.27;;
73015;SDS011;61893;50.074;14.440;2023-07-13T14:23:32;3.55;;;1.42;;
73015;SDS011;61893;50.074;14.440;2023-07-13T14:25:59;2.70;;;1.40;;
73015;SDS011;61893;50.074;14.440;2023-07-13T14:28:40;3.10;;;1.40;;
73015;SDS011;61893;50.074;14.440;2023-07-13T14:31:16;4.97;;;1.40;;
73015;SDS011;61893;50.074;14.440;2023-07-13T14:36:31;3.03;;;1.58;;
73015;SDS011;61893;50.074;14.440;2023-07-13T14:46:04;2.47;;;1.30;;
73015;SDS011;61893;50.074;14.440;2023-07-13T14:48:30;5.65;;;1.50;;
73015;SDS011;61893;50.074;14.440;2023-07-13T14:50:57;4.20;;;1.65;;
73015;SDS011;61893;50.074;14.440;2023-07-13T14:53:27;2.78;;;1.33;;
73015;SDS011;61893;50.074;14.440;2023-07-13T14:55:56;2.05;;;1.10;;
73015;SDS011;61893;50.074;14.440;2023-07-13T15:01:04;3.20;;;1.50;;
73015;SDS011;61893;50.074;14.440;2023-07-13T15:03:34;3.35;;;1.35;;
73015;SDS011;61893;50.074;14.440;2023-07-13T15:06:35;3.63;;;1.48;;
73015;SDS011;61893;50.074;14.440;2023-07-13T15:09:42;3.17;;;1.60;;
73015;SDS011;61893;50.074;14.440;2023-07-13T15:12:10;2.15;;;1.33;;
73015;SDS011;61893;50.074;14.440;2023-07-13T15:14:46;1.73;;;1.27;;
73015;SDS011;61893;50.074;14.440;2023-07-13T15:19:56;4.10;;;1.48;;
73015;SDS011;61893;50.074;14.440;2023-07-13T15:22:23;2.60;;;1.23;;
73015;SDS011;61893;50.074;14.440;2023-07-13T15:24:55;2.30;;;1.30;;
73015;SDS011;61893;50.074;14.440;2023-07-13T15:27:22;3.47;;;1.58;;
73015;SDS011;61893;50.074;14.440;2023-07-13T15:29:52;3.42;;;1.35;;
73015;SDS011;61893;50.074;14.440;2023-07-13T15:38:30;5.15;;;1.30;;
73015;SDS011;61893;50.074;14.440;2023-07-13T15:41:24;3.75;;;1.33;;
73015;SDS011;61893;50.074;14.440;2023-07-13T15:44:07;2.20;;;1.30;;
73015;SDS011;61893;50.074;14.440;2023-07-13T15:46:49;2.15;;;1.27;;
73015;SDS011;61893;50.074;14.440;2023-07-13T15:49:19;2.38;;;1.25;;
73015;SDS011;61893;50.074;14.440;2023-07-13T15:51:46;3.97;;;1.20;;
73015;SDS011;61893;50.074;14.440;2023-07-13T15:54:21;3.65;;;1.45;;
73015;SDS011;61893;50.074;14.440;2023-07-13T15:56:52;1.73;;;1.23;;
73015;SDS011;61893;50.074;14.440;2023-07-13T15:59:19;4.75;;;1.42;;
73015;SDS011;61893;50.074;14.440;2023-07-13T16:01:45;4.47;;;1.45;;
73015;SDS011;61893;50.074;14.440;2023-07-13T16:04:15;5.20;;;1.40;;
73015;SDS011;61893;50.074;14.440;2023-07-13T16:06:41;3.33;;;1.40;;
73015;SDS011;61893;50.074;14.440;2023-07-13T16:09:08;4.18;;;1.65;;
73015;SDS011;61893;50.074;14.440;2023-07-13T16:11:43;3.80;;;1.33;;
73015;SDS011;61893;50.074;14.440;2023-07-13T16:14:13;3.58;;;1.50;;
73015;SDS011;61893;50.074;14.440;2023-07-13T16:16:44;4.03;;;1.70;;
73015;SDS011;61893;50.074;14.440;2023-07-13T16:19:10;2.15;;;1.40;;
73015;SDS011;61893;50.074;14.440;2023-07-13T16:21:40;3.05;;;1.73;;
73015;SDS011;61893;50.074;14.440;2023-07-13T16:24:19;3.15;;;1.50;;
73015;SDS011;61893;50.074;14.440;2023-07-13T16:26:46;3.63;;;1.30;;
73015;SDS011;61893;50.074;14.440;2023-07-13T16:29:24;2.15;;;1.38;;
73015;SDS011;61893;50.074;14.440;2023-07-13T16:32:02;4.53;;;1.63;;
73015;SDS011;61893;50.074;14.440;2023-07-13T16:34:31;3.97;;;1.50;;
73015;SDS011;61893;50.074;14.440;2023-07-13T16:36:59;4.00;;;1.60;;
73015;SDS011;61893;50.074;14.440;2023-07-13T16:39:26;4.13;;;1.70;;
73015;SDS011;61893;50.074;14.440;2023-07-13T16:41:53;2.67;;;1.45;;
73015;SDS011;61893;50.074;14.440;2023-07-13T16:44:21;2.15;;;1.30;;
73015;SDS011;61893;50.074;14.440;2023-07-13T16:46:48;2.80;;;1.42;;
73015;SDS011;61893;50.074;14.440;2023-07-13T16:49:26;2.50;;;1.50;;
73015;SDS011;61893;50.074;14.440;2023-07-13T16:51:54;5.88;;;1.45;;
73015;SDS011;61893;50.074;14.440;2023-07-13T16:54:28;3.38;;;1.42;;
73015;SDS011;61893;50.074;14.440;2023-07-13T16:57:18;3.35;;;1.70;;
73015;SDS011;61893;50.074;14.440;2023-07-13T16:59:53;4.60;;;1.67;;
73015;SDS011;61893;50.074;14.440;2023-07-13T17:05:04;5.72;;;1.65;;
73015;SDS011;61893;50.074;14.440;2023-07-13T17:07:31;2.03;;;1.42;;
73015;SDS011;61893;50.074;14.440;2023-07-13T17:10:00;3.33;;;1.60;;
73015;SDS011;61893;50.074;14.440;2023-07-13T17:12:30;3.67;;;1.45;;
73015;SDS011;61893;50.074;14.440;2023-07-13T17:15:28;4.13;;;1.40;;
73015;SDS011;61893;50.074;14.440;2023-07-13T17:18:25;2.55;;;1.40;;
73015;SDS011;61893;50.074;14.440;2023-07-13T17:21:25;3.30;;;1.48;;
73015;SDS011;61893;50.074;14.440;2023-07-13T17:23:57;2.97;;;1.60;;
73015;SDS011;61893;50.074;14.440;2023-07-13T17:26:31;7.72;;;1.75;;
73015;SDS011;61893;50.074;14.440;2023-07-13T17:31:32;4.25;;;2.08;;
73015;SDS011;61893;50.074;14.440;2023-07-13T17:33:59;4.00;;;1.58;;
73015;SDS011;61893;50.074;14.440;2023-07-13T17:36:24;4.10;;;1.73;;
73015;SDS011;61893;50.074;14.440;2023-07-13T17:38:51;5.22;;;1.70;;
73015;SDS011;61893;50.074;14.440;2023-07-13T17:41:21;4.13;;;1.80;;
73015;SDS011;61893;50.074;14.440;2023-07-13T17:43:50;2.95;;;1.65;;
73015;SDS011;61893;50.074;14.440;2023-07-13T17:46:17;3.03;;;1.60;;
73015;SDS011;61893;50.074;14.440;2023-07-13T17:48:55;2.47;;;1.50;;
73015;SDS011;61893;50.074;14.440;2023-07-13T17:51:21;3.97;;;1.60;;
73015;SDS011;61893;50.074;14.440;2023-07-13T17:54:04;4.22;;;1.90;;
73015;SDS011;61893;50.074;14.440;2023-07-13T17:56:38;4.25;;;1.60;;
73015;SDS011;61893;50.074;14.440;2023-07-13T17:59:21;4.32;;;1.50;;
73015;SDS011;61893;50.074;14.440;2023-07-13T18:02:17;3.47;;;1.50;;
73015;SDS011;61893;50.074;14.440;2023-07-13T18:04:47;5.30;;;1.50;;
73015;SDS011;61893;50.074;14.440;2023-07-13T18:07:13;3.22;;;1.60;;
73015;SDS011;61893;50.074;14.440;2023-07-13T18:09:43;5.53;;;1.67;;
73015;SDS011;61893;50.074;14.440;2023-07-13T18:12:11;4.78;;;1.70;;
73015;SDS011;61893;50.074;14.440;2023-07-13T18:14:37;7.35;;;2.10;;
73015;SDS011;61893;50.074;14.440;2023-07-13T18:17:03;6.72;;;1.83;;
73015;SDS011;61893;50.074;14.440;2023-07-13T18:19:36;3.45;;;2.00;;
73015;SDS011;61893;50.074;14.440;2023-07-13T18:22:11;2.55;;;1.70;;
73015;SDS011;61893;50.074;14.440;2023-07-13T18:24:42;5.70;;;1.77;;
73015;SDS011;61893;50.074;14.440;2023-07-13T18:27:17;4.47;;;1.90;;
73015;SDS011;61893;50.074;14.440;2023-07-13T18:29:43;4.20;;;2.25;;
73015;SDS011;61893;50.074;14.440;2023-07-13T18:32:22;4.47;;;2.00;;
73015;SDS011;61893;50.074;14.440;2023-07-13T18:34:48;3.22;;;1.50;;
73015;SDS011;61893;50.074;14.440;2023-07-13T18:37:18;3.50;;;1.90;;
73015;SDS011;61893;50.074;14.440;2023-07-13T18:40:01;5.45;;;1.75;;
73015;SDS011;61893;50.074;14.440;2023-07-13T18:42:40;5.03;;;2.03;;
73015;SDS011;61893;50.074;14.440;2023-07-13T18:45:24;2.08;;;1.52;;
73015;SDS011;61893;50.074;14.440;2023-07-13T18:47:53;4.35;;;1.50;;
73015;SDS011;61893;50.074;14.440;2023-07-13T18:50:27;4.55;;;1.80;;
73015;SDS011;61893;50.074;14.440;2023-07-13T18:52:56;3.15;;;1.60;;
73015;SDS011;61893;50.074;14.440;2023-07-13T18:55:22;4.85;;;1.50;;
73015;SDS011;61893;50.074;14.440;2023-07-13T18:57:50;3.63;;;1.80;;
73015;SDS011;61893;50.074;14.440;2023-07-13T19:00:24;3.63;;;1.70;;
73015;SDS011;61893;50.074;14.440;2023-07-13T19:02:53;6.25;;;2.00;;
73015;SDS011;61893;50.074;14.440;2023-07-13T19:05:21;3.97;;;1.70;;
73015;SDS011;61893;50.074;14.440;2023-07-13T19:07:51;6.35;;;1.70;;
73015;SDS011;61893;50.074;14.440;2023-07-13T19:10:22;5.72;;;1.60;;
73015;SDS011;61893;50.074;14.440;2023-07-13T19:12:50;4.15;;;1.63;;
73015;SDS011;61893;50.074;14.440;2023-07-13T19:15:19;3.28;;;2.00;;
73015;SDS011;61893;50.074;14.440;2023-07-13T19:17:48;3.72;;;1.92;;
73015;SDS011;61893;50.074;14.440;2023-07-13T19:20:16;4.85;;;1.75;;
73015;SDS011;61893;50.074;14.440;2023-07-13T19:22:49;2.80;;;1.77;;
73015;SDS011;61893;50.074;14.440;2023-07-13T19:25:18;3.25;;;1.35;;
73015;SDS011;61893;50.074;14.440;2023-07-13T19:27:46;3.10;;;1.55;;
73015;SDS011;61893;50.074;14.440;2023-07-13T19:30:14;9.45;;;1.73;;
73015;SDS011;61893;50.074;14.440;2023-07-13T19:32:45;3.17;;;1.60;;
73015;SDS011;61893;50.074;14.440;2023-07-13T19:35:11;4.10;;;1.77;;
73015;SDS011;61893;50.074;14.440;2023-07-13T19:37:38;5.38;;;1.60;;
73015;SDS011;61893;50.074;14.440;2023-07-13T19:40:15;7.15;;;2.10;;
73015;SDS011;61893;50.074;14.440;2023-07-13T19:42:48;4.07;;;1.95;;
73015;SDS011;61893;50.074;14.440;2023-07-13T19:45:16;3.17;;;1.65;;
73015;SDS011;61893;50.074;14.440;2023-07-13T19:47:44;7.32;;;1.95;;
73015;SDS011;61893;50.074;14.440;2023-07-13T19:50:12;3.45;;;1.85;;
73015;SDS011;61893;50.074;14.440;2023-07-13T19:52:41;5.93;;;1.58;;
73015;SDS011;61893;50.074;14.440;2023-07-13T19:55:14;3.38;;;1.80;;
73015;SDS011;61893;50.074;14.440;2023-07-13T19:57:45;5.72;;;2.30;;
73015;SDS011;61893;50.074;14.440;2023-07-13T20:00:16;2.00;;;1.70;;
73015;SDS011;61893;50.074;14.440;2023-07-13T20:05:31;4.25;;;1.65;;
73015;SDS011;61893;50.074;14.440;2023-07-13T20:08:01;4.80;;;1.77;;
73015;SDS011;61893;50.074;14.440;2023-07-13T20:13:11;1.90;;;1.58;;
73015;SDS011;61893;50.074;14.440;2023-07-13T20:15:58;4.78;;;1.55;;
73015;SDS011;61893;50.074;14.440;2023-07-13T20:18:24;3.20;;;1.80;;
73015;SDS011;61893;50.074;14.440;2023-07-13T20:20:52;4.72;;;1.92;;
73015;SDS011;61893;50.074;14.440;2023-07-13T20:23:19;4.40;;;1.45;;
73015;SDS011;61893;50.074;14.440;2023-07-13T20:25:51;5.93;;;1.80;;
73015;SDS011;61893;50.074;14.440;2023-07-13T20:28:17;2.80;;;1.40;;
73015;SDS011;61893;50.074;14.440;2023-07-13T20:30:44;6.35;;;2.00;;
73015;SDS011;61893;50.074;14.440;2023-07-13T20:33:16;2.78;;;1.60;;
73015;SDS011;61893;50.074;14.440;2023-07-13T20:35:47;5.13;;;1.70;;
73015;SDS011;61893;50.074;14.440;2023-07-13T20:38:15;6.45;;;1.80;;
73015;SDS011;61893;50.074;14.440;2023-07-13T20:40:43;4.05;;;1.90;;
73015;SDS011;61893;50.074;14.440;2023-07-13T20:43:32;4.65;;;1.60;;
73015;SDS011;61893;50.074;14.440;2023-07-13T20:46:01;3.78;;;1.70;;
73015;SDS011;61893;50.074;14.440;2023-07-13T20:48:37;3.42;;;1.65;;
73015;SDS011;61893;50.074;14.440;2023-07-13T20:51:08;6.25;;;1.75;;
73015;SDS011;61893;50.074;14.440;2023-07-13T20:53:54;7.13;;;1.60;;
73015;SDS011;61893;50.074;14.440;2023-07-13T20:56:25;4.32;;;1.83;;
73015;SDS011;61893;50.074;14.440;2023-07-13T20:58:52;2.67;;;1.55;;
73015;SDS011;61893;50.074;14.440;2023-07-13T21:01:20;3.22;;;1.60;;
73015;SDS011;61893;50.074;14.440;2023-07-13T21:03:50;4.30;;;1.90;;
73015;SDS011;61893;50.074;14.440;2023-07-13T21:06:22;3.60;;;1.50;;
73015;SDS011;61893;50.074;14.440;2023-07-13T21:08:48;3.47;;;1.67;;
73015;SDS011;61893;50.074;14.440;2023-07-13T21:11:14;5.72;;;1.60;;
73015;SDS011;61893;50.074;14.440;2023-07-13T21:16:22;3.75;;;1.63;;
73015;SDS011;61893;50.074;14.440;2023-07-13T21:18:50;2.60;;;1.58;;
73015;SDS011;61893;50.074;14.440;2023-07-13T21:21:18;3.33;;;1.70;;
73015;SDS011;61893;50.074;14.440;2023-07-13T21:23:49;3.75;;;1.60;;
73015;SDS011;61893;50.074;14.440;2023-07-13T21:26:17;5.28;;;1.70;;
73015;SDS011;61893;50.074;14.440;2023-07-13T21:28:45;3.40;;;1.80;;
73015;SDS011;61893;50.074;14.440;2023-07-13T21:34:13;3.88;;;1.75;;
73015;SDS011;61893;50.074;14.440;2023-07-13T21:36:45;4.50;;;2.05;;
73015;SDS011;61893;50.074;14.440;2023-07-13T21:39:17;3.20;;;1.65;;
73015;SDS011;61893;50.074;14.440;2023-07-13T21:41:45;5.85;;;1.70;;
73015;SDS011;61893;50.074;14.440;2023-07-13T21:44:23;4.75;;;1.95;;
73015;SDS011;61893;50.074;14.440;2023-07-13T21:46:54;3.75;;;1.80;;
73015;SDS011;61893;50.074;14.440;2023-07-13T21:49:21;3.25;;;1.75;;
73015;SDS011;61893;50.074;14.440;2023-07-13T21:51:48;6.65;;;1.50;;
73015;SDS011;61893;50.074;14.440;2023-07-13T21:54:15;4.47;;;1.83;;
73015;SDS011;61893;50.074;14.440;2023-07-13T21:56:43;4.28;;;2.05;;
73015;SDS011;61893;50.074;14.440;2023-07-13T21:59:14;4.75;;;1.77;;
73015;SDS011;61893;50.074;14.440;2023-07-13T22:07:34;4.05;;;2.10;;
73015;SDS011;61893;50.074;14.440;2023-07-13T22:09:59;3.80;;;2.08;;
73015;SDS011;61893;50.074;14.440;2023-07-13T22:12:26;3.25;;;2.03;;
73015;SDS011;61893;50.074;14.440;2023-07-13T22:14:52;3.90;;;2.15;;
73015;SDS011;61893;50.074;14.440;2023-07-13T22:17:18;4.63;;;2.22;;
73015;SDS011;61893;50.074;14.440;2023-07-13T22:19:44;2.90;;;1.90;;
73015;SDS011;61893;50.074;14.440;2023-07-13T22:22:10;4.30;;;2.50;;
73015;SDS011;61893;50.074;14.440;2023-07-13T22:24:36;2.92;;;2.20;;
73015;SDS011;61893;50.074;14.440;2023-07-13T22:27:03;5.85;;;2.60;;
73015;SDS011;61893;50.074;14.440;2023-07-13T22:29:29;3.75;;;2.25;;
73015;SDS011;61893;50.074;14.440;2023-07-13T22:31:58;3.70;;;2.40;;
73015;SDS011;61893;50.074;14.440;2023-07-13T22:34:24;5.53;;;2.17;;
73015;SDS011;61893;50.074;14.440;2023-07-13T22:36:50;4.22;;;2.20;;
73015;SDS011;61893;50.074;14.440;2023-07-13T22:39:37;6.53;;;2.70;;
73015;SDS011;61893;50.074;14.440;2023-07-13T22:42:02;5.85;;;2.60;;
73015;SDS011;61893;50.074;14.440;2023-07-13T22:44:28;4.38;;;2.40;;
73015;SDS011;61893;50.074;14.440;2023-07-13T22:46:54;5.88;;;2.40;;
73015;SDS011;61893;50.074;14.440;2023-07-13T22:49:23;4.85;;;2.53;;
73015;SDS011;61893;50.074;14.440;2023-07-13T22:51:53;5.95;;;2.60;;
73015;SDS011;61893;50.074;14.440;2023-07-13T22:54:20;4.05;;;2.30;;
73015;SDS011;61893;50.074;14.440;2023-07-13T22:56:48;7.55;;;2.88;;
73015;SDS011;61893;50.074;14.440;2023-07-13T22:59:13;4.72;;;2.70;;
73015;SDS011;61893;50.074;14.440;2023-07-13T23:01:40;9.55;;;2.83;;
73015;SDS011;61893;50.074;14.440;2023-07-13T23:04:19;5.68;;;2.30;;
73015;SDS011;61893;50.074;14.440;2023-07-13T23:06:48;5.10;;;2.40;;
73015;SDS011;61893;50.074;14.440;2023-07-13T23:09:17;3.42;;;2.40;;
73015;SDS011;61893;50.074;14.440;2023-07-13T23:11:45;6.78;;;2.55;;
73015;SDS011;61893;50.074;14.440;2023-07-13T23:14:11;8.60;;;2.58;;
73015;SDS011;61893;50.074;14.440;2023-07-13T23:16:38;6.57;;;2.55;;
73015;SDS011;61893;50.074;14.440;2023-07-13T23:19:04;4.65;;;2.60;;
73015;SDS011;61893;50.074;14.440;2023-07-13T23:21:35;3.65;;;2.45;;
73015;SDS011;61893;50.074;14.440;2023-07-13T23:24:01;6.97;;;2.28;;
73015;SDS011;61893;50.074;14.440;2023-07-13T23:26:27;4.53;;;2.25;;
73015;SDS011;61893;50.074;14.440;2023-07-13T23:28:53;3.50;;;2.30;;
73015;SDS011;61893;50.074;14.440;2023-07-13T23:31:23;3.33;;;1.83;;
73015;SDS011;61893;50.074;14.440;2023-07-13T23:33:51;6.22;;;2.15;;
73015;SDS011;61893;50.074;14.440;2023-07-13T23:36:18;3.35;;;1.70;;
73015;SDS011;61893;50.074;14.440;2023-07-13T23:38:45;8.23;;;2.40;;
73015;SDS011;61893;50.074;14.440;2023-07-13T23:41:13;4.85;;;2.30;;
73015;SDS011;61893;50.074;14.440;2023-07-13T23:43:44;4.05;;;2.30;;
73015;SDS011;61893;50.074;14.440;2023-07-13T23:46:19;3.33;;;1.90;;
73015;SDS011;61893;50.074;14.440;2023-07-13T23:48:46;5.47;;;2.65;;
73015;SDS011;61893;50.074;14.440;2023-07-13T23:51:13;6.22;;;2.03;;
73015;SDS011;61893;50.074;14.440;2023-07-13T23:53:39;4.30;;;1.88;;
73015;SDS011;61893;50.074;14.440;2023-07-13T23:56:19;4.78;;;1.90;;
73015;SDS011;61893;50.074;14.440;2023-07-13T23:58:49;6.68;;;2.05;;
